createdAt,value
2019-01-26T00:00:02.840Z,9.50
2019-01-26T00:02:33.294Z,9.50
2019-01-26T00:05:03.819Z,9.50
2019-01-26T00:07:34.293Z,9.50
2019-01-26T00:10:05.191Z,9.50
2019-01-26T00:12:35.657Z,9.50
2019-01-26T00:15:06.906Z,9.50
2019-01-26T00:17:37.335Z,9.50
2019-01-26T00:20:08.325Z,9.40
2019-01-26T00:22:38.812Z,9.40
2019-01-26T00:25:09.504Z,9.40
2019-01-26T00:28:18.438Z,9.40
2019-01-26T00:30:49.046Z,9.30
2019-01-26T00:33:19.521Z,9.30
2019-01-26T00:35:50.898Z,9.30
2019-01-26T00:38:23.489Z,9.20
2019-01-26T00:40:54.094Z,9.20
2019-01-26T00:43:24.519Z,9.10
2019-01-26T00:45:54.945Z,9.10
2019-01-26T00:48:25.362Z,9.00
2019-01-26T00:50:55.790Z,9.00
2019-01-26T00:53:26.218Z,9.00
2019-01-26T00:55:56.690Z,9.00
2019-01-26T00:58:27.183Z,9.00
2019-01-26T01:01:16.554Z,9.00
2019-01-26T01:03:47.074Z,9.00
2019-01-26T01:06:17.497Z,9.00
2019-01-26T01:08:47.939Z,9.10
2019-01-26T01:11:18.364Z,9.10
2019-01-26T01:13:48.793Z,9.10
2019-01-26T01:16:19.210Z,9.20
2019-01-26T01:18:49.649Z,9.10
2019-01-26T01:21:20.063Z,9.10
2019-01-26T01:23:50.489Z,9.10
2019-01-26T01:26:20.919Z,9.20
2019-01-26T01:28:51.358Z,9.10
2019-01-26T01:31:21.781Z,9.10
2019-01-26T01:33:52.414Z,9.20
2019-01-26T01:36:22.839Z,9.20
2019-01-26T01:38:53.369Z,9.20
2019-01-26T01:41:23.782Z,9.10
2019-01-26T01:43:54.216Z,9.10
2019-01-26T01:46:24.639Z,9.10
2019-01-26T01:48:55.247Z,9.10
2019-01-26T01:51:25.709Z,9.10
2019-01-26T01:53:56.125Z,9.10
2019-01-26T01:56:26.552Z,9.10
2019-01-26T01:58:56.978Z,9.10
2019-01-26T02:01:27.409Z,9.10
2019-01-26T02:03:57.947Z,9.10
2019-01-26T02:06:28.465Z,9.10
2019-01-26T02:08:58.890Z,9.10
2019-01-26T02:11:29.329Z,9.10
2019-01-26T02:13:59.746Z,9.10
2019-01-26T02:16:30.183Z,9.10
2019-01-26T02:19:00.611Z,9.10
2019-01-26T02:21:32.413Z,9.00
2019-01-26T02:24:04.325Z,9.00
2019-01-26T02:26:36.290Z,9.00
2019-01-26T02:29:06.914Z,9.00
2019-01-26T02:31:37.341Z,9.00
2019-01-26T02:34:07.769Z,9.00
2019-01-26T02:36:38.252Z,8.90
2019-01-26T02:39:09.651Z,8.90
2019-01-26T02:41:40.177Z,8.80
2019-01-26T02:44:10.602Z,8.90
2019-01-26T02:46:41.046Z,8.80
2019-01-26T02:49:11.469Z,8.80
2019-01-26T02:51:41.891Z,8.70
2019-01-26T02:54:12.310Z,8.60
2019-01-26T02:56:42.956Z,8.60
2019-01-26T02:59:13.588Z,8.70
2019-01-26T03:01:44.321Z,8.70
2019-01-26T03:04:14.805Z,8.70
2019-01-26T03:06:45.321Z,8.80
2019-01-26T03:09:15.794Z,8.80
2019-01-26T03:11:46.222Z,8.80
2019-01-26T03:14:16.660Z,8.80
2019-01-26T03:16:47.080Z,8.80
2019-01-26T03:19:17.506Z,8.80
2019-01-26T03:21:47.942Z,8.80
2019-01-26T03:24:18.535Z,8.80
2019-01-26T03:26:48.990Z,8.90
2019-01-26T03:29:19.427Z,8.80
2019-01-26T03:31:49.862Z,8.90
2019-01-26T03:34:20.487Z,8.90
2019-01-26T03:36:50.902Z,8.90
2019-01-26T03:39:21.382Z,8.90
2019-01-26T03:41:51.866Z,8.90
2019-01-26T03:44:26.511Z,8.80
2019-01-26T03:46:58.999Z,8.80
2019-01-26T03:49:35.533Z,8.80
2019-01-26T03:52:10.505Z,8.80
2019-01-26T03:54:44.594Z,8.90
2019-01-26T03:57:15.006Z,8.90
2019-01-26T03:59:45.443Z,8.80
2019-01-26T04:02:15.879Z,8.80
2019-01-26T04:04:46.357Z,8.70
2019-01-26T04:07:16.870Z,8.70
2019-01-26T04:09:47.354Z,8.70
2019-01-26T04:12:17.774Z,8.70
2019-01-26T04:14:48.198Z,8.70
2019-01-26T04:17:21.913Z,8.80
2019-01-26T04:19:50.689Z,8.70
2019-01-26T04:22:21.128Z,8.70
2019-01-26T04:24:51.546Z,8.80
2019-01-26T04:27:21.986Z,8.80
2019-01-26T04:29:52.398Z,8.80
2019-01-26T04:32:22.826Z,8.70
2019-01-26T04:34:53.251Z,8.70
2019-01-26T04:37:23.783Z,8.70
2019-01-26T04:39:54.269Z,8.70
2019-01-26T04:42:24.739Z,8.70
2019-01-26T04:45:06.354Z,8.70
2019-01-26T04:47:36.898Z,8.80
2019-01-26T04:50:08.773Z,8.80
2019-01-26T04:52:39.249Z,8.80
2019-01-26T04:55:10.096Z,8.80
2019-01-26T04:57:40.530Z,8.80
2019-01-26T05:00:20.103Z,8.80
2019-01-26T05:02:50.578Z,8.80
2019-01-26T05:05:21.008Z,8.90
2019-01-26T05:07:51.820Z,8.90
2019-01-26T05:10:22.382Z,9.00
2019-01-26T05:12:52.904Z,9.00
2019-01-26T05:15:23.507Z,9.00
2019-01-26T05:17:53.975Z,8.90
2019-01-26T05:20:27.851Z,9.00
2019-01-26T05:22:58.309Z,9.00
2019-01-26T05:25:28.724Z,9.00
2019-01-26T05:27:59.150Z,9.00
2019-01-26T05:30:48.385Z,9.00
2019-01-26T05:33:18.960Z,9.00
2019-01-26T05:35:49.389Z,9.00
2019-01-26T05:38:19.802Z,9.00
2019-01-26T05:40:50.282Z,9.10
2019-01-26T05:43:20.778Z,9.10
2019-01-26T05:45:51.291Z,9.10
2019-01-26T05:48:21.720Z,9.00
2019-01-26T05:50:52.142Z,9.00
2019-01-26T05:53:22.572Z,9.00
2019-01-26T05:55:53.000Z,9.10
2019-01-26T05:58:23.425Z,9.00
2019-01-26T06:00:53.850Z,9.00
2019-01-26T06:03:24.278Z,9.00
2019-01-26T06:05:54.708Z,9.00
2019-01-26T06:08:25.131Z,9.00
2019-01-26T06:10:55.675Z,8.90
2019-01-26T06:13:26.139Z,9.00
2019-01-26T06:15:56.629Z,9.00
2019-01-26T06:18:27.043Z,9.00
2019-01-26T06:20:57.470Z,9.00
2019-01-26T06:23:27.909Z,9.00
2019-01-26T06:25:58.327Z,8.90
2019-01-26T06:28:28.969Z,8.90
2019-01-26T06:30:59.382Z,8.90
2019-01-26T06:33:29.885Z,8.80
2019-01-26T06:36:00.381Z,8.80
2019-01-26T06:38:30.869Z,8.80
2019-01-26T06:41:01.297Z,8.80
2019-01-26T06:43:31.779Z,8.70
2019-01-26T06:46:02.253Z,8.70
2019-01-26T06:48:32.691Z,8.70
2019-01-26T06:51:03.106Z,8.60
2019-01-26T06:53:33.546Z,8.60
2019-01-26T06:56:03.963Z,8.60
2019-01-26T06:58:34.390Z,8.60
2019-01-26T07:01:04.813Z,8.60
2019-01-26T07:03:35.242Z,8.60
2019-01-26T07:06:30.769Z,8.60
2019-01-26T07:09:01.298Z,8.60
2019-01-26T07:11:31.727Z,8.60
2019-01-26T07:14:02.297Z,8.70
2019-01-26T07:16:32.787Z,8.70
2019-01-26T07:19:03.206Z,8.70
2019-01-26T07:21:33.626Z,8.80
2019-01-26T07:24:04.074Z,8.80
2019-01-26T07:26:34.697Z,8.80
2019-01-26T07:29:05.214Z,8.80
2019-01-26T07:31:35.642Z,8.90
2019-01-26T07:34:06.353Z,8.90
2019-01-26T07:36:36.830Z,8.90
2019-01-26T07:39:10.098Z,8.90
2019-01-26T07:41:40.525Z,8.90
2019-01-26T07:44:11.026Z,8.90
2019-01-26T07:46:41.662Z,8.90
2019-01-26T07:49:12.117Z,8.90
2019-01-26T07:51:42.538Z,9.00
2019-01-26T07:54:12.966Z,9.00
2019-01-26T07:56:43.394Z,9.00
2019-01-26T07:59:13.821Z,9.00
2019-01-26T08:01:44.246Z,9.00
2019-01-26T08:04:14.677Z,9.00
2019-01-26T08:06:45.102Z,9.00
2019-01-26T08:09:15.531Z,9.10
2019-01-26T08:11:45.953Z,9.10
2019-01-26T08:14:16.688Z,9.10
2019-01-26T08:16:47.793Z,9.10
2019-01-26T08:19:19.182Z,9.10
2019-01-26T08:21:49.770Z,9.20
2019-01-26T08:24:20.240Z,9.10
2019-01-26T08:26:50.677Z,9.10
2019-01-26T08:29:21.106Z,9.20
2019-01-26T08:31:51.531Z,9.20
2019-01-26T08:34:22.025Z,9.30
2019-01-26T08:36:52.529Z,9.30
2019-01-26T08:39:23.019Z,9.30
2019-01-26T08:41:53.446Z,9.40
2019-01-26T08:44:23.862Z,9.50
2019-01-26T08:47:05.570Z,9.60
2019-01-26T08:49:36.139Z,9.60
2019-01-26T08:52:06.733Z,9.60
2019-01-26T08:54:37.257Z,9.60
2019-01-26T08:57:07.680Z,9.60
2019-01-26T08:59:38.108Z,9.60
2019-01-26T09:02:27.479Z,9.60
2019-01-26T09:04:59.022Z,9.70
2019-01-26T09:07:29.447Z,9.80
2019-01-26T09:09:59.875Z,9.80
2019-01-26T09:12:30.313Z,9.80
2019-01-26T09:15:00.730Z,9.80
2019-01-26T09:17:31.218Z,9.80
2019-01-26T09:20:01.700Z,10.00
2019-01-26T09:22:32.114Z,10.10
2019-01-26T09:25:02.554Z,10.30
2019-01-26T09:27:32.965Z,10.50
2019-01-26T09:30:03.506Z,10.80
2019-01-26T09:32:33.935Z,11.20
2019-01-26T09:35:04.854Z,11.30
2019-01-26T09:37:36.094Z,11.30
2019-01-26T09:40:07.512Z,11.20
2019-01-26T09:42:38.090Z,11.20
2019-01-26T09:45:11.647Z,11.10
2019-01-26T09:47:42.641Z,11.10
2019-01-26T09:50:13.435Z,11.20
2019-01-26T09:52:44.071Z,11.10
2019-01-26T09:55:14.522Z,11.10
2019-01-26T09:57:44.953Z,11.10
2019-01-26T10:00:18.070Z,11.20
2019-01-26T10:02:48.581Z,11.30
2019-01-26T10:05:19.108Z,11.30
2019-01-26T10:07:49.889Z,11.80
2019-01-26T10:10:20.785Z,13.20
2019-01-26T10:12:51.517Z,13.70
2019-01-26T10:15:22.137Z,13.30
2019-01-26T10:17:52.876Z,12.70
2019-01-26T10:20:25.246Z,12.30
2019-01-26T10:22:55.906Z,11.80
2019-01-26T10:25:26.417Z,11.50
2019-01-26T10:27:57.870Z,11.20
2019-01-26T10:33:25.802Z,10.90
2019-01-26T10:36:18.406Z,10.60
2019-01-26T10:38:55.488Z,10.30
2019-01-26T10:41:50.697Z,10.20
2019-01-26T10:44:29.217Z,10.20
2019-01-26T10:46:59.644Z,10.20
2019-01-26T10:49:30.261Z,10.50
2019-01-26T10:52:00.741Z,10.80
2019-01-26T10:54:31.221Z,11.20
2019-01-26T10:57:01.644Z,11.70
2019-01-26T10:59:32.083Z,13.10
2019-01-26T11:02:02.498Z,13.70
2019-01-26T11:04:32.930Z,13.40
2019-01-26T11:07:03.366Z,13.20
2019-01-26T11:09:33.788Z,12.60
2019-01-26T11:12:04.206Z,12.10
2019-01-26T11:14:34.633Z,12.00
2019-01-26T11:17:05.072Z,12.20
2019-01-26T11:19:35.496Z,12.60
2019-01-26T11:22:06.026Z,12.70
2019-01-26T11:24:36.582Z,12.60
2019-01-26T11:27:07.178Z,12.00
2019-01-26T11:29:37.614Z,11.60
2019-01-26T11:32:08.227Z,11.40
2019-01-26T11:34:38.718Z,10.80
2019-01-26T11:37:09.204Z,10.50
2019-01-26T11:39:41.372Z,10.30
2019-01-26T11:42:11.889Z,10.20
2019-01-26T11:45:03.218Z,10.20
2019-01-26T11:47:33.634Z,10.50
2019-01-26T11:50:05.277Z,11.10
2019-01-26T11:52:35.714Z,12.00
2019-01-26T11:55:31.142Z,13.50
2019-01-26T11:58:01.663Z,14.80
2019-01-26T12:01:03.437Z,14.50
2019-01-26T12:03:44.203Z,13.60
2019-01-26T12:06:28.051Z,12.90
2019-01-26T12:08:58.459Z,12.70
2019-01-26T12:11:28.896Z,13.10
2019-01-26T12:13:59.416Z,13.20
2019-01-26T12:16:29.842Z,13.10
2019-01-26T12:19:00.280Z,13.20
2019-01-26T12:21:30.707Z,13.10
2019-01-26T12:24:01.121Z,12.90
2019-01-26T12:26:31.583Z,12.90
2019-01-26T12:29:02.079Z,12.90
2019-01-26T12:31:32.507Z,12.60
2019-01-26T12:34:03.062Z,12.20
2019-01-26T12:36:33.619Z,12.00
2019-01-26T12:39:05.705Z,11.80
2019-01-26T12:41:36.157Z,12.10
2019-01-26T12:44:06.597Z,12.00
2019-01-26T12:46:37.025Z,11.80
2019-01-26T12:49:07.451Z,11.70
2019-01-26T12:51:48.879Z,11.50
2019-01-26T12:54:19.471Z,11.40
2019-01-26T12:56:50.037Z,11.20
2019-01-26T12:59:20.525Z,11.20
2019-01-26T13:01:50.941Z,11.30
2019-01-26T13:04:21.370Z,11.30
2019-01-26T13:06:51.798Z,11.20
2019-01-26T13:09:22.222Z,11.10
2019-01-26T13:11:52.649Z,11.10
2019-01-26T13:14:23.078Z,11.50
2019-01-26T13:16:53.502Z,11.70
2019-01-26T13:19:23.940Z,11.60
2019-01-26T13:21:54.357Z,11.50
2019-01-26T13:24:24.785Z,11.30
2019-01-26T13:26:55.224Z,11.10
2019-01-26T13:29:25.693Z,10.90
2019-01-26T13:31:56.173Z,10.70
2019-01-26T13:34:26.607Z,10.70
2019-01-26T13:36:57.032Z,10.70
2019-01-26T13:39:27.461Z,11.80
2019-01-26T13:41:57.878Z,13.10
2019-01-26T13:44:47.117Z,13.80
2019-01-26T13:47:17.626Z,13.60
2019-01-26T13:49:48.112Z,13.60
2019-01-26T13:52:18.705Z,12.90
2019-01-26T13:54:49.162Z,12.50
2019-01-26T13:57:19.598Z,12.40
2019-01-26T13:59:50.077Z,12.10
2019-01-26T14:02:20.546Z,12.00
2019-01-26T14:04:51.077Z,11.90
2019-01-26T14:07:21.500Z,11.60
2019-01-26T14:10:11.865Z,11.40
2019-01-26T14:12:42.378Z,11.40
2019-01-26T14:15:13.827Z,11.30
2019-01-26T14:17:44.301Z,11.20
2019-01-26T14:20:17.625Z,10.90
2019-01-26T14:22:48.022Z,10.60
2019-01-26T14:25:18.964Z,10.50
2019-01-26T14:27:49.401Z,10.50
2019-01-26T14:30:35.561Z,10.40
2019-01-26T14:33:06.138Z,10.40
2019-01-26T14:35:36.541Z,10.60
2019-01-26T14:38:07.185Z,10.90
2019-01-26T14:40:37.613Z,11.00
2019-01-26T14:43:07.946Z,11.20
2019-01-26T14:45:38.354Z,11.30
2019-01-26T14:48:08.969Z,11.10
2019-01-26T14:50:39.423Z,11.10
2019-01-26T14:53:10.053Z,11.10
2019-01-26T14:55:40.481Z,11.10
2019-01-26T14:58:10.909Z,11.20
2019-01-26T15:00:41.328Z,11.20
2019-01-26T15:03:11.806Z,11.10
2019-01-26T15:05:42.291Z,11.10
2019-01-26T15:08:12.719Z,11.10
2019-01-26T15:10:43.189Z,11.00
2019-01-26T15:13:13.718Z,10.90
2019-01-26T15:15:44.413Z,10.90
2019-01-26T15:18:14.825Z,10.80
2019-01-26T15:20:45.253Z,11.00
2019-01-26T15:23:15.678Z,11.60
2019-01-26T15:25:46.118Z,11.50
2019-01-26T15:28:16.546Z,11.10
2019-01-26T15:30:46.961Z,10.90
2019-01-26T15:33:17.451Z,10.80
2019-01-26T15:35:47.928Z,10.70
2019-01-26T15:38:19.208Z,10.70
2019-01-26T15:40:49.706Z,10.60
2019-01-26T15:43:20.336Z,10.50
2019-01-26T15:45:51.538Z,10.50
2019-01-26T15:48:22.011Z,10.50
2019-01-26T15:50:52.546Z,10.60
2019-01-26T15:53:22.955Z,10.60
2019-01-26T15:55:53.562Z,10.70
2019-01-26T15:58:24.249Z,10.70
2019-01-26T16:00:54.645Z,10.60
2019-01-26T16:03:25.070Z,10.50
2019-01-26T16:05:55.541Z,10.50
2019-01-26T16:08:26.142Z,10.40
2019-01-26T16:10:56.568Z,10.40
2019-01-26T16:13:27.023Z,10.40
2019-01-26T16:15:57.629Z,10.30
2019-01-26T16:18:29.065Z,10.30
2019-01-26T16:20:59.506Z,10.30
2019-01-26T16:23:30.033Z,10.20
2019-01-26T16:26:00.451Z,10.20
2019-01-26T16:28:30.888Z,10.20
2019-01-26T16:31:01.310Z,10.10
2019-01-26T16:33:31.730Z,10.20
2019-01-26T16:36:02.212Z,10.20
2019-01-26T16:38:38.742Z,10.20
2019-01-26T16:41:09.170Z,10.20
2019-01-26T16:43:39.584Z,10.20
2019-01-26T16:46:10.025Z,10.20
2019-01-26T16:48:40.439Z,10.20
2019-01-26T16:51:10.865Z,10.20
2019-01-26T16:53:41.293Z,10.20
2019-01-26T16:56:11.821Z,10.10
2019-01-26T16:58:42.682Z,10.20
2019-01-26T17:01:13.095Z,10.20
2019-01-26T17:03:43.810Z,10.20
2019-01-26T17:06:14.345Z,10.20
2019-01-26T17:08:44.991Z,10.20
2019-01-26T17:11:16.605Z,10.10
2019-01-26T17:13:47.114Z,10.10
2019-01-26T17:16:17.645Z,10.00
2019-01-26T17:18:48.132Z,10.00
2019-01-26T17:21:18.559Z,10.00
2019-01-26T17:23:49.090Z,10.00
2019-01-26T17:26:19.502Z,9.90
2019-01-26T17:28:49.942Z,9.80
2019-01-26T17:31:20.421Z,9.70
2019-01-26T17:33:50.885Z,9.60
2019-01-26T17:36:21.314Z,9.60
2019-01-26T17:38:52.067Z,9.50
2019-01-26T17:41:22.474Z,9.50
2019-01-26T17:43:52.914Z,9.40
2019-01-26T17:46:23.329Z,9.40
2019-01-26T17:48:53.787Z,9.40
2019-01-26T17:51:24.360Z,9.50
2019-01-26T17:53:54.814Z,9.50
2019-01-26T17:56:25.255Z,9.50
2019-01-26T17:58:55.670Z,9.50
2019-01-26T18:01:26.312Z,9.50
2019-01-26T18:03:56.730Z,9.50
2019-01-26T18:06:27.357Z,9.50
2019-01-26T18:08:57.786Z,9.50
2019-01-26T18:11:28.267Z,9.50
2019-01-26T18:13:58.787Z,9.60
2019-01-26T18:16:29.387Z,9.60
2019-01-26T18:19:00.827Z,9.60
2019-01-26T18:21:31.251Z,9.60
2019-01-26T18:24:01.677Z,9.60
2019-01-26T18:26:32.106Z,9.50
2019-01-26T18:29:02.537Z,9.50
2019-01-26T18:31:32.961Z,9.50
2019-01-26T18:34:03.389Z,9.50
2019-01-26T18:36:33.825Z,9.50
2019-01-26T18:39:05.997Z,9.50
2019-01-26T18:41:36.409Z,9.50
2019-01-26T18:44:07.098Z,9.50
2019-01-26T18:46:37.582Z,9.60
2019-01-26T18:49:07.999Z,9.50
2019-01-26T18:51:38.426Z,9.50
2019-01-26T18:54:08.854Z,9.50
2019-01-26T18:56:39.278Z,9.40
2019-01-26T18:59:09.718Z,9.30
2019-01-26T19:01:40.419Z,9.20
2019-01-26T19:04:35.046Z,9.10
2019-01-26T19:07:05.561Z,9.00
2019-01-26T19:09:36.018Z,8.90
2019-01-26T19:12:06.429Z,8.80
2019-01-26T19:14:36.946Z,8.70
2019-01-26T19:17:07.374Z,8.70
2019-01-26T19:19:37.813Z,8.80
2019-01-26T19:22:08.230Z,8.80
2019-01-26T19:24:38.758Z,8.90
2019-01-26T19:27:09.400Z,8.90
2019-01-26T19:29:39.827Z,8.90
2019-01-26T19:32:10.248Z,8.90
2019-01-26T19:34:40.685Z,9.00
2019-01-26T19:37:11.210Z,8.90
2019-01-26T19:39:41.640Z,8.80
2019-01-26T19:42:12.065Z,8.80
2019-01-26T19:44:42.492Z,8.60
2019-01-26T19:47:12.969Z,8.60
2019-01-26T19:49:43.447Z,8.50
2019-01-26T19:52:13.867Z,8.50
2019-01-26T19:54:44.290Z,8.50
2019-01-26T19:57:14.821Z,8.50
2019-01-26T19:59:45.258Z,8.40
2019-01-26T20:02:15.890Z,8.30
2019-01-26T20:04:46.422Z,8.40
2019-01-26T20:07:16.846Z,8.60
2019-01-26T20:09:47.280Z,8.60
2019-01-26T20:12:17.700Z,8.70
2019-01-26T20:14:48.220Z,8.70
2019-01-26T20:17:19.066Z,8.80
2019-01-26T20:19:49.494Z,8.80
2019-01-26T20:22:21.563Z,8.80
2019-01-26T20:24:51.984Z,8.80
2019-01-26T20:27:22.415Z,8.80
2019-01-26T20:29:52.832Z,8.80
2019-01-26T20:32:23.254Z,8.80
2019-01-26T20:34:53.693Z,8.70
2019-01-26T20:37:24.120Z,8.70
2019-01-26T20:39:54.547Z,8.60
2019-01-26T20:42:24.976Z,8.50
2019-01-26T20:44:55.390Z,8.50
2019-01-26T20:47:25.833Z,8.40
2019-01-26T20:49:56.392Z,8.30
2019-01-26T20:52:26.887Z,8.30
2019-01-26T20:54:57.318Z,8.20
2019-01-26T20:57:27.743Z,8.20
2019-01-26T20:59:58.170Z,8.30
2019-01-26T21:02:28.598Z,8.40
2019-01-26T21:04:59.239Z,8.40
2019-01-26T21:07:29.654Z,8.50
2019-01-26T21:10:00.086Z,8.50
2019-01-26T21:12:30.610Z,8.40
2019-01-26T21:15:04.937Z,8.40
2019-01-26T21:17:33.281Z,8.30
2019-01-26T21:20:04.017Z,8.20
2019-01-26T21:22:34.470Z,8.20
2019-01-26T21:25:05.167Z,8.20
2019-01-26T21:27:35.629Z,8.10
2019-01-26T21:30:07.742Z,8.00
2019-01-26T21:32:38.228Z,8.00
2019-01-26T21:35:09.618Z,8.00
2019-01-26T21:37:40.106Z,8.00
2019-01-26T21:40:14.065Z,8.00
2019-01-26T21:42:44.642Z,8.00
2019-01-26T21:45:15.550Z,8.10
2019-01-26T21:47:46.113Z,8.10
2019-01-26T21:50:21.810Z,8.00
2019-01-26T21:52:52.342Z,7.90
2019-01-26T21:55:22.810Z,7.80
2019-01-26T21:57:53.238Z,7.90
2019-01-26T22:00:26.203Z,7.80
2019-01-26T22:02:56.968Z,7.80
2019-01-26T22:05:27.804Z,7.90
2019-01-26T22:07:58.325Z,7.80
2019-01-26T22:10:30.799Z,7.80
2019-01-26T22:13:01.237Z,7.70
2019-01-26T22:15:31.884Z,7.70
2019-01-26T22:18:02.471Z,7.60
2019-01-26T22:20:32.918Z,7.60
2019-01-26T22:23:03.510Z,7.60
2019-01-26T22:25:33.973Z,7.50
2019-01-26T22:28:04.416Z,7.60
2019-01-26T22:30:36.114Z,7.70
2019-01-26T22:33:06.596Z,7.70
2019-01-26T22:35:37.119Z,7.70
2019-01-26T22:38:07.554Z,7.60
2019-01-26T22:40:38.595Z,7.50
2019-01-26T22:43:09.019Z,7.50
2019-01-26T22:45:39.455Z,7.60
2019-01-26T22:48:09.978Z,7.60
2019-01-26T22:50:40.611Z,7.60
2019-01-26T22:56:18.123Z,7.60
2019-01-26T22:58:49.758Z,7.60
2019-01-26T23:01:27.518Z,7.60
2019-01-26T23:04:34.863Z,7.60
2019-01-26T23:07:17.879Z,7.60
2019-01-26T23:10:04.082Z,7.60
2019-01-26T23:12:44.719Z,7.60
2019-01-26T23:15:50.719Z,7.60
2019-01-26T23:19:04.120Z,7.60
2019-01-26T23:22:09.295Z,7.70
2019-01-26T23:24:59.882Z,7.70
2019-01-26T23:28:35.346Z,7.80
2019-01-26T23:31:14.805Z,7.90
2019-01-26T23:33:45.662Z,7.90
2019-01-26T23:36:16.823Z,7.90
2019-01-26T23:38:47.283Z,7.90
2019-01-26T23:41:17.750Z,7.80
2019-01-26T23:43:48.147Z,7.90
2019-01-26T23:46:37.416Z,7.80
2019-01-26T23:49:07.990Z,7.70
2019-01-26T23:51:38.669Z,7.60
2019-01-26T23:54:09.106Z,7.60
2019-01-26T23:56:39.553Z,7.50
2019-01-26T23:59:10.054Z,7.50
